Zova, Israel
Current Conditions -  °F | °C
As of 6:50 AM on Sunday 21 Dec 2014 (Local Time) from LLBG Reporting Station
Clear Clear  
Wind Chill: 52°   Ceiling: Unl
Heat Index: 52°   Visibility: 6mi
Dew Point: 50°   Wind: 3mph
Humidity: 94%   Direction: NA
Pressure: 30.12"   Gusts: NA
Location:  31.78°N, 35.12°E
Report Text: LLBG 210350Z VRB03KT CAVOK 11/10 Q1020 NOSIG RMK FEW080
Loading
Personal Weather Stations






























Interactive Weather Map New forecast layout! Learn more

10-Day Weather Forecast

Advertisements
Track Severe Weather on mobile